Time;durP1;ratioP1;P1;durP2;ratioP2;P2;SDS_P1;SDS_P2;PMS_P1;PMS_P2;Temp;Humidity;BMP_temperature;BMP_pressure;BME280_temperature;BME280_humidity;BME280_pressure;Samples;Min_cycle;Max_cycle;Signal;HPM_P1;HPM_P2
2022/02/24 00:01:47;;;;;;;10.23;3.92;;;;;;;-1.65;97.53;95923.81;5089161;28;20105;-76
2022/02/24 00:04:12;;;;;;;11.25;3.63;;;;;;;-1.66;97.43;95924.78;5107698;28;20075;-76
2022/02/24 00:06:38;;;;;;;10.80;4.03;;;;;;;-1.58;99.56;95922.09;5107963;28;20067;-76
2022/02/24 00:09:04;;;;;;;10.48;3.88;;;;;;;-1.43;100.00;95926.44;5103159;28;20044;-76
2022/02/24 00:11:31;;;;;;;10.55;3.50;;;;;;;-1.22;100.00;95929.00;5092034;28;20417;-76
2022/02/24 00:13:58;;;;;;;11.48;3.67;;;;;;;-0.94;100.00;95936.00;5107740;28;20075;-76
2022/02/24 00:16:24;;;;;;;13.80;4.30;;;;;;;-0.65;100.00;95947.16;5102129;28;20394;-76
2022/02/24 00:18:49;;;;;;;9.20;3.38;;;;;;;-0.48;100.00;95928.81;5107529;28;20047;-76
2022/02/24 00:21:18;;;;;;;9.23;3.67;;;;;;;-0.38;100.00;95929.25;5091305;28;20123;-76
2022/02/24 00:23:43;;;;;;;8.02;3.63;;;;;;;-0.26;100.00;95938.09;5089713;28;20051;-76
2022/02/24 00:26:09;;;;;;;9.20;3.70;;;;;;;-0.25;100.00;95934.50;5107580;28;20040;-76
2022/02/24 00:28:34;;;;;;;9.68;3.63;;;;;;;-0.16;100.00;95926.59;5108556;28;20099;-76
2022/02/24 00:31:00;;;;;;;8.52;3.50;;;;;;;-0.11;100.00;95929.41;5106758;28;20512;-76
2022/02/24 00:33:25;;;;;;;8.05;3.58;;;;;;;-0.08;100.00;95929.03;5103040;28;20483;-76
2022/02/24 00:35:52;;;;;;;9.70;4.07;;;;;;;-0.17;100.00;95930.97;5102158;28;20032;-76
2022/02/24 00:38:18;;;;;;;13.25;3.70;;;;;;;-0.19;99.79;95928.59;5088975;28;20040;-76
2022/02/24 00:40:43;;;;;;;8.95;3.97;;;;;;;-0.10;99.92;95925.81;5088564;28;20425;-76
2022/02/24 00:43:09;;;;;;;7.03;3.10;;;;;;;-0.12;99.87;95928.59;5089024;28;20498;-76
2022/02/24 00:45:34;;;;;;;8.63;3.42;;;;;;;-0.19;100.00;95931.16;5099204;28;20459;-76
2022/02/24 00:48:00;;;;;;;8.55;3.53;;;;;;;-0.12;100.00;95935.56;5108104;28;20497;-76
2022/02/24 00:50:25;;;;;;;9.95;3.15;;;;;;;-0.14;100.00;95929.78;5095617;28;20048;-76
2022/02/24 00:52:56;;;;;;;10.88;3.50;;;;;;;-0.18;100.00;95919.03;5100020;28;20713;-76
2022/02/24 00:55:22;;;;;;;6.82;3.08;;;;;;;-0.24;99.79;95918.00;5099759;28;20441;-76
2022/02/24 00:57:48;;;;;;;8.55;3.78;;;;;;;-0.25;100.00;95921.56;5088779;28;20039;-77
2022/02/24 01:00:14;;;;;;;6.95;3.03;;;;;;;-0.31;100.00;95919.75;5088495;28;20044;-76
2022/02/24 01:02:39;;;;;;;10.00;3.40;;;;;;;-0.24;100.00;95915.41;5088528;28;20040;-76
2022/02/24 01:05:05;;;;;;;5.28;2.83;;;;;;;-0.31;100.00;95919.75;5100894;28;20127;-76
2022/02/24 01:07:31;;;;;;;8.20;3.40;;;;;;;-0.48;100.00;95921.03;5106083;28;20036;-76
2022/02/24 01:09:56;;;;;;;7.28;3.40;;;;;;;-0.66;100.00;95917.16;5092729;28;20421;-76
2022/02/24 01:12:24;;;;;;;7.45;2.67;;;;;;;-0.63;100.00;95913.38;5098452;28;20044;-77
2022/02/24 01:14:50;;;;;;;5.88;2.80;;;;;;;-0.55;100.00;95918.41;5109891;28;20039;-76
2022/02/24 01:17:15;;;;;;;4.68;2.70;;;;;;;-0.59;100.00;95918.00;5106060;27;20416;-76
2022/02/24 01:19:41;;;;;;;4.38;2.40;;;;;;;-0.78;100.00;95903.91;5096005;28;20050;-75
2022/02/24 01:22:07;;;;;;;4.93;2.60;;;;;;;-0.86;100.00;95917.00;5092769;28;20156;-76
2022/02/24 01:24:32;;;;;;;5.63;2.50;;;;;;;-0.85;100.00;95904.88;5095445;28;20096;-76
2022/02/24 01:26:58;;;;;;;6.60;3.15;;;;;;;-0.97;100.00;95900.22;5111278;28;20554;-76
2022/02/24 01:29:23;;;;;;;5.03;2.40;;;;;;;-1.00;100.00;95900.59;5106023;28;20052;-76
2022/02/24 01:31:49;;;;;;;6.55;2.50;;;;;;;-1.13;100.00;95892.75;5092398;28;20054;-76
2022/02/24 01:34:17;;;;;;;4.53;2.33;;;;;;;-1.14;100.00;95889.34;5099788;28;20042;-76
2022/02/24 01:36:42;;;;;;;5.22;2.50;;;;;;;-1.25;100.00;95887.25;5099394;28;20040;-77
2022/02/24 01:39:08;;;;;;;6.43;2.80;;;;;;;-1.25;100.00;95888.06;5092281;28;20040;-76
2022/02/24 01:41:33;;;;;;;3.88;2.33;;;;;;;-1.34;100.00;95878.84;5109499;28;20067;-76
2022/02/24 01:44:13;;;;;;;4.53;2.50;;;;;;;-1.36;100.00;95880.81;5106041;28;20143;-76
2022/02/24 01:46:40;;;;;;;6.43;2.38;;;;;;;-1.50;100.00;95879.09;5102700;28;20050;-76
2022/02/24 01:49:07;;;;;;;4.65;2.40;;;;;;;-1.28;100.00;95883.28;5098687;28;20056;-76
2022/02/24 01:51:33;;;;;;;5.53;2.50;;;;;;;-1.32;100.00;95871.72;5093522;28;20043;-76
2022/02/24 01:53:59;;;;;;;4.50;2.40;;;;;;;-1.30;100.00;95874.13;5097609;28;20039;-76
2022/02/24 01:56:25;;;;;;;5.90;2.40;;;;;;;-1.44;100.00;95868.03;5099276;28;20042;-77
2022/02/24 01:58:51;;;;;;;5.13;2.50;;;;;;;-1.53;100.00;95869.13;5091554;28;20040;-77
2022/02/24 02:01:17;;;;;;;4.05;2.15;;;;;;;-1.51;100.00;95862.78;5100304;28;20054;-76
2022/02/24 02:03:43;;;;;;;4.10;2.42;;;;;;;-1.45;100.00;95871.59;5092856;28;20047;-76
2022/02/24 02:06:09;;;;;;;6.13;2.50;;;;;;;-1.69;100.00;95870.97;5098163;28;20043;-76
2022/02/24 02:08:35;;;;;;;5.35;2.38;;;;;;;-1.73;100.00;95866.38;5111180;27;20216;-76
2022/02/24 02:11:01;;;;;;;5.15;2.38;;;;;;;-1.67;100.00;95857.88;5091567;28;20668;-76
2022/02/24 02:13:26;;;;;;;4.40;2.28;;;;;;;-1.70;100.00;95843.56;5101805;28;20119;-76
2022/02/24 02:15:52;;;;;;;3.65;2.25;;;;;;;-1.71;100.00;95854.88;5105979;28;20047;-76
2022/02/24 02:18:19;;;;;;;4.40;2.42;;;;;;;-1.79;100.00;95860.16;5095556;28;20497;-76
2022/02/24 02:20:45;;;;;;;6.70;2.47;;;;;;;-1.84;100.00;95847.00;5111084;28;20089;-75
2022/02/24 02:23:11;;;;;;;4.78;2.40;;;;;;;-1.71;100.00;95843.75;5101743;28;20093;-76
2022/02/24 02:25:37;;;;;;;5.50;2.60;;;;;;;-1.89;100.00;95850.13;5109573;28;20039;-76
2022/02/24 02:28:03;;;;;;;5.78;2.38;;;;;;;-1.80;100.00;95854.16;5110660;28;20044;-76
2022/02/24 02:30:30;;;;;;;6.80;2.70;;;;;;;-1.76;100.00;95850.25;5106336;28;20108;-77
2022/02/24 02:32:58;;;;;;;4.80;2.40;;;;;;;-1.53;100.00;95840.75;5097826;28;20036;-76
2022/02/24 02:35:23;;;;;;;3.92;2.40;;;;;;;-1.73;100.00;95843.94;5090945;28;20040;-76
2022/02/24 02:37:49;;;;;;;4.15;2.53;;;;;;;-1.81;100.00;95833.72;5090774;28;20036;-76
2022/02/24 02:40:16;;;;;;;6.00;2.63;;;;;;;-1.74;100.00;95832.00;5091010;28;20460;-76
2022/02/24 02:42:41;;;;;;;4.22;2.38;;;;;;;-1.76;100.00;95844.31;5099465;28;20031;-77
2022/02/24 02:45:08;;;;;;;4.53;2.55;;;;;;;-1.77;100.00;95837.53;5103025;28;20047;-76
2022/02/24 02:47:35;;;;;;;5.30;2.40;;;;;;;-1.79;100.00;95829.97;5108132;28;20047;-76
2022/02/24 02:50:01;;;;;;;5.18;2.85;;;;;;;-1.80;100.00;95838.69;5111381;28;20153;-76
2022/02/24 02:52:26;;;;;;;6.47;2.80;;;;;;;-1.78;100.00;95830.78;5089603;28;20122;-76
2022/02/24 02:55:01;;;;;;;3.72;2.20;;;;;;;-1.84;100.00;95826.34;5098969;28;20041;-76
2022/02/24 02:57:27;;;;;;;4.55;2.70;;;;;;;-1.93;100.00;95829.03;5092582;28;20051;-76
2022/02/24 02:59:52;;;;;;;5.43;2.80;;;;;;;-1.99;100.00;95834.94;5093103;28;20036;-76
2022/02/24 03:02:18;;;;;;;6.32;2.60;;;;;;;-2.04;100.00;95832.13;5096222;28;20043;-77
2022/02/24 03:04:43;;;;;;;4.53;2.50;;;;;;;-1.90;100.00;95832.25;5111079;28;20047;-76
2022/02/24 03:07:09;;;;;;;5.25;2.70;;;;;;;-1.93;100.00;95823.88;5105318;28;20544;-76
2022/02/24 03:09:34;;;;;;;5.50;2.60;;;;;;;-1.93;100.00;95818.72;5102322;28;20054;-76
2022/02/24 03:12:00;;;;;;;5.50;2.80;;;;;;;-1.90;100.00;95814.19;5105646;28;20048;-76
2022/02/24 03:14:25;;;;;;;6.00;2.67;;;;;;;-1.97;100.00;95812.34;5090479;28;20047;-76
2022/02/24 03:16:51;;;;;;;4.47;2.83;;;;;;;-2.08;100.00;95810.25;5096186;28;20043;-76
2022/02/24 03:19:16;;;;;;;4.93;2.70;;;;;;;-2.09;100.00;95816.38;5090544;28;20489;-76
2022/02/24 03:21:42;;;;;;;5.30;2.63;;;;;;;-2.06;100.00;95812.63;5090106;28;20051;-76
2022/02/24 03:24:07;;;;;;;5.65;2.47;;;;;;;-2.09;100.00;95806.06;5090141;28;20051;-76
2022/02/24 03:26:33;;;;;;;7.72;2.63;;;;;;;-2.11;100.00;95800.31;5093002;28;20220;-76
2022/02/24 03:28:59;;;;;;;6.15;2.75;;;;;;;-2.02;100.00;95804.34;5106352;28;20126;-77
2022/02/24 03:31:24;;;;;;;4.85;2.58;;;;;;;-2.02;100.00;95803.56;5106752;28;20493;-76
2022/02/24 03:33:50;;;;;;;5.28;3.00;;;;;;;-2.12;100.00;95793.53;5102563;28;20111;-76
2022/02/24 03:36:15;;;;;;;5.00;2.70;;;;;;;-2.13;100.00;95791.94;5089898;28;20566;-76
2022/02/24 03:38:41;;;;;;;5.90;2.70;;;;;;;-2.04;100.00;95796.00;5089750;28;20048;-76
2022/02/24 03:41:06;;;;;;;5.05;2.70;;;;;;;-2.03;100.00;95792.44;5089975;28;20040;-76
2022/02/24 03:43:32;;;;;;;6.55;2.75;;;;;;;-2.05;100.00;95793.59;5089373;28;20078;-76
2022/02/24 03:45:58;;;;;;;5.07;2.60;;;;;;;-2.16;100.00;95792.28;5089387;28;20040;-76
2022/02/24 03:48:23;;;;;;;6.57;2.50;;;;;;;-2.11;100.00;95795.94;5090425;28;20036;-76
2022/02/24 03:50:49;;;;;;;6.03;2.75;;;;;;;-2.22;100.00;95788.66;5102931;28;20408;-76
2022/02/24 03:53:15;;;;;;;5.47;2.60;;;;;;;-2.07;100.00;95790.41;5096379;28;20486;-76
2022/02/24 03:55:40;;;;;;;5.45;2.58;;;;;;;-2.06;100.00;95787.63;5089311;28;20040;-76
2022/02/24 03:58:06;;;;;;;10.32;2.85;;;;;;;-2.21;100.00;95779.97;5093611;27;20668;-76
2022/02/24 04:00:31;;;;;;;10.45;2.53;;;;;;;-2.22;100.00;95783.50;5129269;27;20039;-76
2022/02/24 04:02:57;;;;;;;4.95;2.50;;;;;;;-2.20;100.00;95780.75;5108228;27;20115;-76
2022/02/24 04:05:23;;;;;;;5.68;2.55;;;;;;;-2.18;100.00;95768.50;5111588;27;20434;-76
2022/02/24 04:07:48;;;;;;;4.97;2.58;;;;;;;-2.20;100.00;95775.59;5096895;28;20058;-76
2022/02/24 04:10:16;;;;;;;5.35;2.58;;;;;;;-2.22;100.00;95767.25;5104112;28;20467;-76
2022/02/24 04:12:41;;;;;;;5.70;2.60;;;;;;;-2.25;100.00;95767.63;5096533;27;20039;-76
2022/02/24 04:15:08;;;;;;;6.03;2.67;;;;;;;-2.27;100.00;95766.00;5091750;28;20421;-76
2022/02/24 04:17:33;;;;;;;4.80;2.70;;;;;;;-2.25;100.00;95767.63;5109832;28;20035;-76
2022/02/24 04:19:59;;;;;;;5.65;2.50;;;;;;;-2.25;100.00;95767.63;5098988;28;20067;-76
2022/02/24 04:22:24;;;;;;;6.93;2.95;;;;;;;-2.25;100.00;95757.31;5089035;28;20444;-76
2022/02/24 04:24:50;;;;;;;5.80;2.40;;;;;;;-2.25;100.00;95747.00;5088805;28;20044;-76
2022/02/24 04:27:15;;;;;;;6.88;3.05;;;;;;;-2.26;100.00;95751.34;5088899;28;20413;-76
2022/02/24 04:29:41;;;;;;;5.43;2.63;;;;;;;-2.27;100.00;95740.25;5106084;28;20044;-76
2022/02/24 04:32:07;;;;;;;4.80;2.60;;;;;;;-2.24;100.00;95738.25;5104626;28;20036;-76
2022/02/24 04:34:32;;;;;;;6.05;2.30;;;;;;;-2.29;100.00;95736.25;5089287;28;20048;-76
2022/02/24 04:36:58;;;;;;;6.47;2.88;;;;;;;-2.29;100.00;95737.03;5090138;28;20043;-76
2022/02/24 04:39:23;;;;;;;4.35;2.33;;;;;;;-2.33;100.00;95746.13;5090512;28;20040;-76
2022/02/24 04:41:49;;;;;;;5.55;2.65;;;;;;;-2.36;100.00;95731.00;5093339;28;20733;-76
2022/02/24 04:44:15;;;;;;;5.75;2.80;;;;;;;-2.33;100.00;95729.84;5107317;28;20037;-76
2022/02/24 04:46:40;;;;;;;4.00;2.50;;;;;;;-2.34;100.00;95729.06;5096620;27;20043;-77
2022/02/24 04:49:06;;;;;;;6.38;2.55;;;;;;;-2.33;100.00;95730.66;5099956;28;20040;-76
2022/02/24 04:51:31;;;;;;;5.93;3.00;;;;;;;-2.28;100.00;95728.31;5107468;28;20394;-76
2022/02/24 04:53:57;;;;;;;5.03;2.85;;;;;;;-2.25;100.00;95726.38;5099861;28;20471;-76
2022/02/24 04:56:23;;;;;;;5.97;2.67;;;;;;;-2.13;100.00;95727.47;5111981;28;20032;-76
2022/02/24 04:58:49;;;;;;;7.75;3.22;;;;;;;-2.15;100.00;95726.88;5111888;28;20047;-76
2022/02/24 05:01:15;;;;;;;8.15;2.75;;;;;;;-2.18;100.00;95727.22;5103334;28;20569;-76
2022/02/24 05:03:40;;;;;;;7.05;2.80;;;;;;;-2.17;100.00;95723.66;5093777;27;20055;-76
2022/02/24 05:06:06;;;;;;;6.43;2.75;;;;;;;-2.28;100.00;95718.00;5092568;28;20040;-76
2022/02/24 05:08:31;;;;;;;6.88;2.60;;;;;;;-2.25;100.00;95716.06;5098308;28;20046;-76
2022/02/24 05:10:57;;;;;;;4.68;2.70;;;;;;;-2.31;100.00;95718.38;5109086;28;20497;-76
2022/02/24 05:13:23;;;;;;;5.53;2.63;;;;;;;-2.27;100.00;95719.59;5102793;28;20522;-76
2022/02/24 05:15:49;;;;;;;5.10;2.53;;;;;;;-2.22;100.00;95715.69;5099277;28;20040;-76
2022/02/24 05:18:15;;;;;;;4.88;2.70;;;;;;;-2.21;100.00;95712.09;5110211;28;20093;-76
2022/02/24 05:20:40;;;;;;;5.30;2.70;;;;;;;-2.29;100.00;95711.25;5106372;28;20425;-76
2022/02/24 05:23:06;;;;;;;5.82;2.70;;;;;;;-2.20;100.00;95709.34;5092607;28;20032;-76
2022/02/24 05:25:35;;;;;;;5.75;2.78;;;;;;;-2.22;100.00;95700.22;5092706;27;20405;-75
2022/02/24 05:28:08;;;;;;;4.75;2.75;;;;;;;-2.33;100.00;95693.75;5093094;28;20464;-75
2022/02/24 05:30:34;;;;;;;5.50;2.78;;;;;;;-2.35;100.00;95701.69;5109237;28;20058;-75
2022/02/24 05:33:00;;;;;;;5.55;2.83;;;;;;;-2.35;100.00;95701.69;5093145;28;20048;-76
2022/02/24 05:35:26;;;;;;;6.00;2.80;;;;;;;-2.33;100.00;95699.72;5102822;27;20426;-75
2022/02/24 05:37:51;;;;;;;6.03;2.58;;;;;;;-2.28;100.00;95699.19;5112787;28;20645;-75
2022/02/24 05:40:17;;;;;;;7.60;2.97;;;;;;;-2.15;100.00;95695.91;5097663;28;20043;-76
2022/02/24 05:42:44;;;;;;;7.95;2.80;;;;;;;-2.21;100.00;95701.78;5097755;28;20553;-76
2022/02/24 05:45:09;;;;;;;7.03;3.10;;;;;;;-2.22;100.00;95701.00;5091688;28;20486;-75
2022/02/24 05:47:35;;;;;;;6.03;2.55;;;;;;;-2.29;100.00;95703.50;5110379;28;20040;-76
2022/02/24 05:50:02;;;;;;;10.02;3.50;;;;;;;-2.37;100.00;95693.34;5108734;28;20043;-76
2022/02/24 05:52:28;;;;;;;9.38;3.58;;;;;;;-2.27;100.00;95703.31;5109944;28;20040;-76
2022/02/24 05:54:53;;;;;;;9.30;3.53;;;;;;;-2.21;100.00;95691.47;5106491;28;20044;-75
2022/02/24 05:57:19;;;;;;;11.07;3.65;;;;;;;-2.25;100.00;95695.44;5098334;28;20044;-76
2022/02/24 05:59:44;;;;;;;6.32;3.00;;;;;;;-2.25;100.00;95700.59;5111578;28;20036;-75
2022/02/24 06:02:10;;;;;;;5.93;3.03;;;;;;;-2.17;100.00;95703.03;5099716;28;20047;-74
2022/02/24 06:04:35;;;;;;;7.70;3.40;;;;;;;-2.29;100.00;95700.94;5097637;28;20036;-76
2022/02/24 06:07:01;;;;;;;9.43;3.45;;;;;;;-2.30;100.00;95708.84;5091281;28;20592;-75
2022/02/24 06:09:27;;;;;;;6.10;3.10;;;;;;;-2.27;100.00;95693.84;5091791;28;20421;-75
2022/02/24 06:11:52;;;;;;;7.93;3.13;;;;;;;-2.20;100.00;95693.09;5099459;28;20040;-75
2022/02/24 06:14:18;;;;;;;5.78;3.10;;;;;;;-2.17;100.00;95697.88;5091111;28;20036;-75
2022/02/24 06:16:44;;;;;;;9.07;2.83;;;;;;;-2.18;100.00;95696.28;5102276;28;20393;-76
2022/02/24 06:19:09;;;;;;;7.88;3.20;;;;;;;-2.15;100.00;95690.75;5102295;28;20044;-75
2022/02/24 06:21:35;;;;;;;6.43;2.90;;;;;;;-2.04;100.00;95692.03;5098543;28;20040;-75
2022/02/24 06:24:00;;;;;;;5.30;2.85;;;;;;;-2.02;100.00;95690.88;5091929;28;20125;-75
2022/02/24 06:26:26;;;;;;;8.35;3.42;;;;;;;-2.07;100.00;95690.63;5091210;28;20040;-75
2022/02/24 06:28:52;;;;;;;7.68;3.03;;;;;;;-2.05;100.00;95693.81;5100713;28;20127;-76
2022/02/24 06:31:17;;;;;;;5.68;2.95;;;;;;;-1.95;100.00;95691.72;5098631;27;20040;-75
2022/02/24 06:33:42;;;;;;;8.48;3.13;;;;;;;-1.94;100.00;95683.00;5108433;28;20042;-75
2022/02/24 06:36:08;;;;;;;7.88;2.92;;;;;;;-1.95;100.00;95676.25;5100333;28;20051;-75
2022/02/24 06:38:34;;;;;;;7.35;3.15;;;;;;;-1.94;100.00;95675.28;5106821;28;20127;-76
2022/02/24 06:40:59;;;;;;;6.88;3.33;;;;;;;-1.83;100.00;95678.31;5091265;28;20184;-75
2022/02/24 06:43:25;;;;;;;6.30;2.80;;;;;;;-1.96;100.00;95669.47;5090259;28;20122;-75
2022/02/24 06:45:51;;;;;;;7.72;3.40;;;;;;;-1.96;100.00;95674.66;5090596;28;20494;-75
2022/02/24 06:48:17;;;;;;;8.90;3.08;;;;;;;-1.86;100.00;95670.97;5092250;28;20044;-75
2022/02/24 06:50:44;;;;;;;6.60;3.03;;;;;;;-1.93;100.00;95673.47;5093595;28;20074;-75
2022/02/24 06:53:10;;;;;;;10.55;3.90;;;;;;;-1.87;100.00;95671.94;5102163;28;20040;-76
2022/02/24 06:55:36;;;;;;;8.13;3.03;;;;;;;-1.71;100.00;95676.84;5109676;28;20039;-75
2022/02/24 06:58:02;;;;;;;7.15;2.97;;;;;;;-1.68;100.00;95676.47;5095768;28;20066;-76
2022/02/24 07:00:28;;;;;;;10.30;3.08;;;;;;;-1.58;100.00;95678.69;5105745;28;20397;-76
2022/02/24 07:02:53;;;;;;;5.30;3.05;;;;;;;-1.43;100.00;95670.84;5101455;27;20063;-76
2022/02/24 07:05:19;;;;;;;6.88;3.28;;;;;;;-1.41;100.00;95666.28;5101630;28;20131;-74
2022/02/24 07:07:45;;;;;;;9.98;3.67;;;;;;;-1.39;100.00;95664.31;5090561;28;20048;-73
2022/02/24 07:10:12;;;;;;;8.75;3.20;;;;;;;-1.22;100.00;95663.03;5094010;28;20039;-74
2022/02/24 07:12:39;;;;;;;6.90;3.40;;;;;;;-1.22;100.00;95660.44;5097818;28;20448;-75
2022/02/24 07:15:05;;;;;;;6.38;3.63;;;;;;;-1.16;100.00;95652.94;5102202;28;20094;-73
2022/02/24 07:17:31;;;;;;;10.93;3.15;;;;;;;-1.11;100.00;95650.56;5108608;28;20040;-73
2022/02/24 07:19:57;;;;;;;9.65;3.22;;;;;;;-0.92;100.00;95655.00;5099818;28;20497;-74
2022/02/24 07:22:23;;;;;;;10.20;3.45;;;;;;;-0.94;100.00;95651.03;5096069;28;20036;-73
2022/02/24 07:24:49;;;;;;;7.25;3.65;;;;;;;-0.77;100.00;95651.47;5097204;28;20061;-73
2022/02/24 07:27:14;;;;;;;32.28;7.63;;;;;;;-0.51;100.00;95649.97;5101276;27;20038;-74
2022/02/24 07:29:40;;;;;;;18.55;6.00;;;;;;;-0.36;100.00;95640.22;5100932;28;20139;-74
2022/02/24 07:32:06;;;;;;;13.00;4.55;;;;;;;-0.44;100.00;95630.09;5103134;28;20051;-77
2022/02/24 07:34:32;;;;;;;22.40;5.25;;;;;;;-0.40;100.00;95631.28;5098448;28;20135;-76
2022/02/24 07:36:58;;;;;;;24.17;5.85;;;;;;;-0.36;100.00;95624.69;5108476;27;20039;-73
2022/02/24 07:39:23;;;;;;;15.90;4.15;;;;;;;-0.31;100.00;95630.09;5111689;27;20044;-75
2022/02/24 07:41:49;;;;;;;16.27;4.68;;;;;;;-0.17;100.00;95625.75;5105086;28;20399;-74
2022/02/24 07:44:15;;;;;;;7.47;3.63;;;;;;;-0.08;100.00;95623.75;5107610;27;20032;-73
2022/02/24 07:46:41;;;;;;;17.27;5.15;;;;;;;-0.01;100.00;95619.38;5094649;28;20059;-73
2022/02/24 07:49:06;;;;;;;12.20;4.32;;;;;;;0.16;100.00;95617.97;5107818;28;20654;-75
2022/02/24 07:51:33;;;;;;;14.70;5.20;;;;;;;0.23;100.00;95619.72;5106389;28;20108;-75
2022/02/24 07:53:59;;;;;;;27.85;7.45;;;;;;;0.39;100.00;95624.50;5095258;28;20440;-74
2022/02/24 07:56:25;;;;;;;34.67;7.95;;;;;;;0.44;100.00;95626.47;5093089;28;20047;-77
2022/02/24 07:58:51;;;;;;;32.42;7.30;;;;;;;0.57;100.00;95623.84;5096183;28;20744;-73
2022/02/24 08:01:17;;;;;;;26.27;6.43;;;;;;;0.76;100.00;95630.00;5094011;28;20042;-74
2022/02/24 08:03:43;;;;;;;35.72;7.13;;;;;;;0.93;100.00;95619.16;5093797;28;20032;-73
2022/02/24 08:06:09;;;;;;;24.70;6.05;;;;;;;1.05;100.00;95617.53;5102112;28;20494;-75
2022/02/24 08:08:34;;;;;;;13.68;4.50;;;;;;;1.18;100.00;95622.66;5101554;28;20077;-73
2022/02/24 08:11:01;;;;;;;21.73;5.40;;;;;;;1.36;100.00;95613.38;5097754;28;20044;-73
2022/02/24 08:13:27;;;;;;;13.60;3.40;;;;;;;1.47;100.00;95620.50;5097902;28;20043;-73
2022/02/24 08:15:53;;;;;;;15.02;3.78;;;;;;;1.61;100.00;95615.22;5094250;28;20094;-73
2022/02/24 08:18:19;;;;;;;15.35;3.72;;;;;;;1.70;100.00;95619.16;5105672;28;20047;-74
2022/02/24 08:20:45;;;;;;;12.70;3.70;;;;;;;1.82;100.00;95617.47;5103126;28;20038;-74
2022/02/24 08:23:10;;;;;;;18.48;3.35;;;;;;;1.99;100.00;95622.13;5103791;28;20110;-73
2022/02/24 08:25:38;;;;;;;15.55;3.50;;;;;;;2.12;99.65;95614.22;5091052;28;20036;-73
2022/02/24 08:28:04;;;;;;;16.00;3.28;;;;;;;2.32;100.00;95610.69;5090220;28;20113;-75
2022/02/24 08:30:29;;;;;;;13.25;2.20;;;;;;;2.50;95.01;95615.88;5099740;28;20035;-75
2022/02/24 08:32:55;;;;;;;6.25;2.58;;;;;;;2.72;96.58;95599.88;5106404;28;20479;-75
2022/02/24 08:35:24;;;;;;;25.52;9.93;;;;;;;2.87;95.51;95602.09;5090384;28;20446;-75
2022/02/24 08:37:50;;;;;;;5.57;2.42;;;;;;;3.15;90.89;95604.16;5100558;28;20040;-73
2022/02/24 08:40:18;;;;;;;9.18;3.65;;;;;;;3.18;93.74;95597.72;5092212;28;20065;-73
2022/02/24 08:42:44;;;;;;;7.32;2.90;;;;;;;3.23;93.39;95585.66;5094744;28;20051;-73
2022/02/24 08:45:11;;;;;;;2.92;1.73;;;;;;;3.83;83.26;95594.41;5087864;28;20074;-73
2022/02/24 08:47:40;;;;;;;6.85;2.47;;;;;;;3.83;87.35;95588.41;5090051;28;20047;-73
2022/02/24 08:50:06;;;;;;;7.50;3.08;;;;;;;3.81;89.17;95591.25;5092287;28;20044;-74
2022/02/24 08:52:32;;;;;;;11.00;3.10;;;;;;;3.76;89.10;95584.06;5102612;28;20040;-75
2022/02/24 08:54:58;;;;;;;5.97;2.67;;;;;;;3.83;88.55;95578.78;5105368;28;20036;-73
2022/02/24 08:57:23;;;;;;;10.75;2.60;;;;;;;3.86;88.84;95577.53;5110986;28;20064;-74
2022/02/24 08:59:49;;;;;;;8.43;1.70;;;;;;;3.92;86.49;95577.44;5100854;28;20044;-73
2022/02/24 09:02:14;;;;;;;3.92;1.52;;;;;;;4.04;86.56;95566.22;5105368;28;20052;-74
2022/02/24 09:04:40;;;;;;;2.88;1.50;;;;;;;4.16;83.98;95567.81;5112767;28;20043;-76
2022/02/24 09:07:06;;;;;;;4.60;1.70;;;;;;;4.61;80.66;95566.44;5119747;27;20106;-74
2022/02/24 09:09:31;;;;;;;5.38;2.00;;;;;;;4.78;81.26;95563.09;5100994;28;20043;-73
2022/02/24 09:11:57;;;;;;;4.97;2.35;;;;;;;5.07;76.29;95561.31;5105097;28;20074;-72
2022/02/24 09:14:23;;;;;;;3.05;1.67;;;;;;;5.30;78.26;95565.63;5101877;28;20097;-72
2022/02/24 09:16:49;;;;;;;12.00;2.28;;;;;;;5.35;79.93;95568.31;5100252;28;20039;-73
2022/02/24 09:19:14;;;;;;;14.52;2.00;;;;;;;5.37;81.20;95557.63;5113746;28;20099;-72
2022/02/24 09:21:40;;;;;;;5.78;2.03;;;;;;;5.26;81.49;95554.06;5116143;27;20044;-73
2022/02/24 09:24:07;;;;;;;6.60;2.08;;;;;;;5.36;81.21;95551.66;5100731;28;20043;-74
2022/02/24 09:26:33;;;;;;;6.18;2.08;;;;;;;5.42;79.77;95551.75;5110069;28;20047;-74
2022/02/24 09:29:00;;;;;;;5.45;1.52;;;;;;;6.12;69.33;95554.94;5113898;28;20489;-74
2022/02/24 09:31:27;;;;;;;2.63;1.60;;;;;;;6.23;73.03;95546.22;5100748;28;20387;-74
2022/02/24 09:33:52;;;;;;;6.75;1.73;;;;;;;6.52;67.89;95539.03;5113628;28;20092;-73
2022/02/24 09:36:18;;;;;;;3.42;1.80;;;;;;;6.81;68.22;95540.66;5098894;28;20044;-75
2022/02/24 09:38:44;;;;;;;2.78;1.58;;;;;;;7.14;65.05;95533.69;5105805;27;20044;-74
2022/02/24 09:41:11;;;;;;;3.03;1.33;;;;;;;7.49;66.04;95542.94;5110174;28;20470;-74
2022/02/24 09:43:37;;;;;;;4.55;1.55;;;;;;;7.48;62.88;95538.72;5116528;28;20044;-74
2022/02/24 09:46:07;;;;;;;4.18;1.50;;;;;;;7.60;61.74;95541.94;5112664;28;20588;-74
2022/02/24 09:48:35;;;;;;;4.03;1.50;;;;;;;8.23;58.38;95538.75;5107140;28;20405;-73
2022/02/24 09:51:04;;;;;;;3.15;1.50;;;;;;;8.33;61.38;95528.31;5109706;28;20033;-74
2022/02/24 09:53:34;;;;;;;4.20;1.70;;;;;;;8.34;60.58;95535.13;5098586;28;20047;-72
2022/02/24 09:56:01;;;;;;;4.30;1.48;;;;;;;8.90;55.32;95525.97;5108177;27;20048;-74
2022/02/24 09:58:27;;;;;;;3.03;1.60;;;;;;;9.22;56.09;95517.13;5112973;27;20766;-73
2022/02/24 10:00:53;;;;;;;3.33;1.35;;;;;;;9.49;53.53;95511.63;5108563;27;20032;-74
2022/02/24 10:03:30;;;;;;;4.88;1.50;;;;;;;9.99;51.24;95517.94;5109032;28;20050;-73
2022/02/24 10:05:57;;;;;;;5.35;1.40;;;;;;;10.15;51.24;95518.69;5112259;28;20042;-73
2022/02/24 10:08:27;;;;;;;3.65;1.60;;;;;;;10.48;49.06;95511.28;5120366;28;20039;-74
2022/02/24 10:10:53;;;;;;;3.50;1.58;;;;;;;10.62;49.99;95506.25;5106585;28;20115;-75
2022/02/24 10:13:20;;;;;;;3.50;1.63;;;;;;;10.66;49.00;95501.22;5104050;28;20043;-74
2022/02/24 10:15:53;;;;;;;5.07;1.83;;;;;;;10.87;48.07;95497.44;5108061;28;20040;-74
2022/02/24 10:18:20;;;;;;;4.00;1.60;;;;;;;11.79;48.34;95495.25;5115565;28;20429;-75
2022/02/24 10:21:00;;;;;;;5.18;1.73;;;;;;;12.65;46.41;95490.16;5107986;28;20035;-74
2022/02/24 10:23:36;;;;;;;9.13;1.67;;;;;;;12.87;45.49;95480.91;5107787;28;20040;-73
2022/02/24 10:26:09;;;;;;;6.63;1.60;;;;;;;12.93;43.66;95485.09;5113623;28;20130;-74
2022/02/24 10:28:52;;;;;;;4.15;1.63;;;;;;;13.74;42.11;95486.84;5109315;28;20652;-72
2022/02/24 10:31:20;;;;;;;3.22;1.60;;;;;;;14.12;41.02;95475.34;5119185;27;20040;-73
2022/02/24 10:34:08;;;;;;;3.47;1.50;;;;;;;14.51;39.75;95479.38;5111210;28;20120;-72
2022/02/24 10:36:36;;;;;;;2.90;1.70;;;;;;;14.34;39.67;95472.81;5097866;28;20048;-76
2022/02/24 10:39:06;;;;;;;5.13;1.70;;;;;;;14.03;41.14;95473.38;5104778;28;20051;-74
2022/02/24 10:41:33;;;;;;;3.97;1.90;;;;;;;14.03;41.55;95473.38;5111392;28;20054;-75
2022/02/24 10:44:23;;;;;;;3.28;1.70;;;;;;;14.10;40.89;95466.94;5100544;28;20036;-74
2022/02/24 10:46:51;;;;;;;6.65;1.95;;;;;;;13.97;42.40;95463.97;5108453;27;20754;-75
2022/02/24 10:49:34;;;;;;;3.58;1.95;;;;;;;14.44;41.99;95466.56;5103187;27;20048;-74
2022/02/24 10:52:18;;;;;;;4.18;1.95;;;;;;;14.38;41.04;95468.50;5107862;28;20054;-73
2022/02/24 10:54:54;;;;;;;;;;;;;;;14.88;41.71;95459.06;5099600;28;20497;-74
2022/02/24 10:57:25;;;;;;;5.50;2.38;;;;;;;15.14;39.22;95445.25;5097230;27;19924;-75
2022/02/24 10:59:51;;;;;;;3.88;1.80;;;;;;;15.47;39.22;95437.84;5105039;28;20051;-76
2022/02/24 11:02:17;;;;;;;7.00;1.90;;;;;;;16.02;38.69;95431.50;5099064;28;20542;-75
2022/02/24 11:04:47;;;;;;;3.60;1.98;;;;;;;16.17;39.33;95432.19;5090649;28;20040;-76
2022/02/24 11:07:13;;;;;;;8.30;2.03;;;;;;;16.92;36.71;95429.56;5101432;28;20044;-75
2022/02/24 11:09:41;;;;;;;3.83;1.98;;;;;;;16.82;36.93;95417.31;5105118;28;20107;-75
2022/02/24 11:12:10;;;;;;;5.85;2.00;;;;;;;17.29;36.32;95416.75;5101764;28;20044;-75
2022/02/24 11:14:36;;;;;;;6.60;2.20;;;;;;;16.68;36.83;95414.81;5109720;28;20466;-74
2022/02/24 11:17:07;;;;;;;5.43;2.00;;;;;;;17.04;37.75;95410.31;5091017;28;20044;-75
2022/02/24 11:19:35;;;;;;;5.65;2.30;;;;;;;17.21;37.33;95398.91;5090656;28;20069;-74
2022/02/24 11:22:03;;;;;;;6.03;2.10;;;;;;;17.38;35.90;95390.91;5106290;28;20039;-75
2022/02/24 11:24:28;;;;;;;7.70;2.15;;;;;;;17.42;37.12;95389.19;5100224;28;20838;-76
2022/02/24 11:27:03;;;;;;;6.82;2.10;;;;;;;17.63;35.34;95388.53;5090145;28;20044;-75